Darstellungsparameter: Aktuell verwendete Einstellungen:
Skalierung der Graphiken ... ?
xyx+y,   Skalierungsfaktor:      Skalierung: Modus: x, Faktor: 1
Darstellungszeitraum ... ?
Vom - - bis: - -   Zeitraum: 23.02.2003 - 24.04.2010
Min/Max/Avg-Anzeige ... ?
Zeige MMA aktuell
Zeige MMA Monat
Zeige MMA alles
Zeige --A aktuell
Zeige --A Monat
Zeige --A alles
Keine MMA-Anzeige
MMA:
Keine MMA-Graphiken
MMA-Basis: 23.02.2003 - 24.04.2010
Quicknavigation für Darstellung... ?
Tage:      1T, 2T, 3T, 5T -1T -2T -3T -5T +1T +2T +3T +5T
Wochen: 1W, 2W, 3W -1W -2W -3W +1W +2W +3W
Monate: 1M, 3M, 6M -1M -3M -6M +1M +3M +6M
Jahre:    1J, 3J, 5J, 10J -1J -3J -5J -10J +1J +3J +5J +10J
Nutze für die Darstellung ... ?
Originaldaten oder ...
Mittelwerte Minima Maxima auf...
Stundenbasis Tagesbasis Wochenbasis
Monatsbasis Jahresbasis      Datenbasis: Mittelwerte auf Monatsbasis
Darstellen als:
Statistik (Auto) Statistik J:M      Darstellung:

Der gewünschte Datumsbereich war nicht gültig/verfügbar und wurde korrigiert....
Das angegebene Startdatum (25.04.2000 00:00:00) liegt vor dem ersten Datenbankeintrag.


Zur Graphik,    zurück zur Übersicht aller Sensoren.
 
Tabellarische Datenbersicht: ?
 
Sensor: Nr:Datum:Temp:Feuchte:Taupunkt:
Aussen-T/F 1 01-02-2003 00:00:00 4.48524 C 63.2125 % -1.89 C
2 01-03-2003 00:00:00 8.44129 C 65.5536 % 2.37 C
3 01-04-2003 00:00:00 10.74549 C 65.0601 % 4.46 C
4 01-05-2003 00:00:00 16.29883 C 61.9240 % 8.99 C
5 01-06-2003 00:00:00 22.52656 C 59.1011 % 14.14 C
6 01-07-2003 00:00:00 21.39153 C 56.7711 % 12.47 C
7 01-08-2003 00:00:00 23.30904 C 51.9964 % 12.9 C
8 01-09-2003 00:00:00 15.90339 C 65.3643 % 9.42 C
9 01-10-2003 00:00:00 7.93234 C 74.9593 % 3.77 C
10 01-11-2003 00:00:00 7.9681 C 74.6188 % 3.74 C
11 01-12-2003 00:00:00 2.95275 C 75.0792 % -1.02 C
12 01-01-2004 00:00:00 2.36116 C 70.8541 % -2.37 C
13 01-02-2004 00:00:00 4.69623 C 62.2967 % -1.88 C
14 01-03-2004 00:00:00 6.34737 C 61.4856 % -0.5 C
15 01-04-2004 00:00:00 11.88043 C 60.6436 % 4.53 C
16 01-05-2004 00:00:00 14.08777 C 61.6183 % 6.84 C
17 01-06-2004 00:00:00 17.60676 C 64.2832 % 10.79 C
18 01-07-2004 00:00:00 19.01721 C 65.9688 % 12.52 C
19 01-08-2004 00:00:00 20.72245 C 65.3892 % 14 C
20 01-09-2004 00:00:00 16.29744 C 66.5768 % 10.07 C
21 01-10-2004 00:00:00 11.7712 C 76.4382 % 7.77 C
22 01-11-2004 00:00:00 5.60764 C 81.4269 % 2.68 C
23 01-12-2004 00:00:00 1.5301 C 79.5134 % -1.62 C
24 01-01-2005 00:00:00 3.80632 C 70.1094 % -1.13 C
25 01-02-2005 00:00:00 1.48875 C 71.8374 % -3.03 C
Sensor: Nr:Datum:Temp:Feuchte:Taupunkt:
Aussen-T/F 26 01-03-2005 00:00:00 7.78453 C 63.1660 % 1.23 C
27 01-04-2005 00:00:00 11.75573 C 64.5486 % 5.3 C
28 01-05-2005 00:00:00 15.05924 C 62.1800 % 7.89 C
29 01-06-2005 00:00:00 20.27763 C 51.5233 % 9.97 C
30 01-07-2005 00:00:00 20.6784 C 60.0858 % 12.66 C
31 01-08-2005 00:00:00 18.03605 C 65.3807 % 11.45 C
32 01-09-2005 00:00:00 16.93889 C 66.2547 % 10.61 C
33 01-10-2005 00:00:00 12.95821 C 77.2875 % 9.08 C
34 01-11-2005 00:00:00 6.12486 C 79.4188 % 2.84 C
35 01-12-2005 00:00:00 2.39762 C 79.3501 % -0.8 C
36 01-01-2006 00:00:00 -0.84748 C 76.6711 % -4.42 C
37 01-02-2006 00:00:00 1.83319 C 70.7192 % -2.91 C
38 01-03-2006 00:00:00 4.37314 C 63.8814 % -1.85 C
39 01-04-2006 00:00:00 10.36633 C 59.7335 % 2.89 C
40 01-05-2006 00:00:00 15.72132 C 60.0626 % 8 C
41 01-06-2006 00:00:00 20.00486 C 53.8515 % 10.38 C
42 01-07-2006 00:00:00 25.32282 C 47.9453 % 13.51 C
43 01-08-2006 00:00:00 17.15743 C 70.0238 % 11.65 C
44 01-09-2006 00:00:00 19.27974 C 65.5445 % 12.67 C
45 01-10-2006 00:00:00 14.33561 C 75.3716 % 10.04 C
46 01-11-2006 00:00:00 8.66421 C 77.9128 % 5.03 C
47 01-12-2006 00:00:00 5.1238 C 74.6679 % 1.01 C
48 01-01-2007 00:00:00 6.51135 C 62.1418 % -0.2 C
49 01-02-2007 00:00:00 6.19771 C 66.9777 % 0.53 C
50 01-03-2007 00:00:00 8.66251 C 59.8428 % 1.31 C
Sensor: Nr:Datum:Temp:Feuchte:Taupunkt:
Aussen-T/F 51 01-04-2007 00:00:00 13.64719 C 48.5467 % 3.01 C
52 01-05-2007 00:00:00 17.03196 C 58.1341 % 8.75 C
53 01-06-2007 00:00:00 19.58027 C 61.8656 % 12.07 C
54 01-07-2007 00:00:00 19.45619 C 57.2743 % 10.79 C
55 01-08-2007 00:00:00 18.81883 C 63.0121 % 11.63 C
56 01-09-2007 00:00:00 14.45221 C 69.5969 % 8.97 C
57 01-10-2007 00:00:00 12.08977 C 73.3647 % 7.48 C
58 01-11-2007 00:00:00 5.44725 C 78.1165 % 1.95 C
59 01-12-2007 00:00:00 2.48122 C 75.6524 % -1.37 C
60 01-01-2008 00:00:00 5.34954 C 70.1278 % 0.36 C
61 01-02-2008 00:00:00 4.38505 C 65.6047 % -1.48 C
62 01-03-2008 00:00:00 6.34296 C 57.7334 % -1.36 C
63 01-04-2008 00:00:00 9.64593 C 65.1593 % 3.43 C
64 01-05-2008 00:00:00 18.62709 C 49.3898 % 7.83 C
65 01-06-2008 00:00:00 20.05406 C 54.4138 % 10.58 C
66 01-07-2008 00:00:00 20.20426 C 56.3209 % 11.24 C
67 01-08-2008 00:00:00 19.95194 C 57.1634 % 11.23 C
68 01-09-2008 00:00:00 13.56618 C 68.8301 % 7.96 C
69 01-10-2008 00:00:00 11.42875 C 75.4641 % 7.25 C
70 01-11-2008 00:00:00 6.07023 C 78.9619 % 2.7 C
71 01-12-2008 00:00:00 1.52941 C 83.0517 % -1.03 C
72 01-01-2009 00:00:00 -1.56764 C 73.8579 % -5.61 C
73 01-02-2009 00:00:00 3.01325 C 69.3976 % -2.03 C
74 01-03-2009 00:00:00 6.41904 C 62.8080 % -0.14 C
75 01-04-2009 00:00:00 14.62991 C 57.2299 % 6.27 C
Sensor: Nr:Datum:Temp:Feuchte:Taupunkt:
Aussen-T/F 76 01-05-2009 00:00:00 16.6395 C 57.6761 % 8.27 C
77 01-06-2009 00:00:00 18.12632 C 57.6226 % 9.64 C
78 01-07-2009 00:00:00 20.92787 C 56.1243 % 11.86 C
79 01-08-2009 00:00:00 21.42827 C 53.3276 % 11.55 C
80 01-09-2009 00:00:00 16.89747 C 65.4890 % 10.39 C
81 01-10-2009 00:00:00 10.34649 C 73.7545 % 5.87 C
82 01-11-2009 00:00:00 9.28793 C 75.2989 % 5.15 C
83 01-12-2009 00:00:00 2.38203 C 77.6482 % -1.11 C
84 01-01-2010 00:00:00 -1.14228 C 78.4890 % -4.4 C
85 01-02-2010 00:00:00 3.48183 C 70.5308 % -1.36 C
86 01-03-2010 00:00:00 6.48443 C 59.4221 % -0.84 C
87 01-04-2010 00:00:00 10.3644 C 50.3050 % 0.49 C

Maximal/Minimal-Werte vom 23.02.2003 - 24.04.2010

Sensor Min Max Avg
Temp
(Aussen-T/F)
-16.4 °C
20-12-2009  01:30:01
36.2 °C
08-08-2003  16:43:01
11.54 °C
Feuchte
(Aussen-T/F)
20 %
13-03-2003  15:27:13
95 %
27-03-2003  04:17:17
66.21 %
Taupunkt
(Aussen-T/F)
-5.61 C
01-01-2009  00:00:00
14.14 C
01-06-2003  00:00:00
5.02 C

Die Daten stammen von einer Davis Vantage Pro 2 Wetter-Station und werden unter Linux mit der Software wview2wettercgi und aufbereitet. Alle Angaben erfolgen ohne Gewähr für ihre Vollständigkeit oder Richtigkeit.
Kontakt: Rainer Krienke krienke@uni-koblenz.de . Meine Webseiten an der Uni Koblenz oder privat.
Version: $Revision: 0.78 $